Time;durP1;ratioP1;P1;durP2;ratioP2;P2;SDS_P1;SDS_P2;PMS_P1;PMS_P2;Temp;Humidity;BMP_temperature;BMP_pressure;BME280_temperature;BME280_humidity;BME280_pressure;Samples;Min_cycle;Max_cycle;Signal;HPM_P1;HPM_P2
2022/10/21 00:01:07;;;;;;;22.60;9.30;;;;;;;27.16;100.00;97064.19;6246253;22;20084;-95
2022/10/21 00:03:33;;;;;;;27.27;9.63;;;;;;;28.46;96.46;97075.38;6247995;22;20101;-96
2022/10/21 00:05:59;;;;;;;21.60;8.82;;;;;;;28.72;93.32;97071.69;6246082;22;20061;-95
2022/10/21 00:08:24;;;;;;;27.23;8.65;;;;;;;28.93;90.78;97069.28;6245786;22;20007;-95
2022/10/21 00:10:53;;;;;;;27.08;9.00;;;;;;;28.38;92.77;97070.00;6246118;22;20106;-95
2022/10/21 00:13:19;;;;;;;21.27;9.23;;;;;;;27.72;97.68;97070.75;6243678;22;20012;-95
2022/10/21 00:15:45;;;;;;;21.45;8.02;;;;;;;26.63;100.00;97069.53;6245320;22;20008;-95
2022/10/21 00:18:10;;;;;;;21.23;8.20;;;;;;;29.42;91.38;97064.78;6245459;22;20038;-96
2022/10/21 00:20:40;;;;;;;18.90;7.55;;;;;;;28.00;92.79;97073.16;6245545;22;20008;-95
2022/10/21 00:23:06;;;;;;;20.90;8.35;;;;;;;27.83;96.84;97066.91;6244470;22;20552;-96
2022/10/21 00:25:31;;;;;;;23.50;7.78;;;;;;;27.66;98.26;97054.50;6245114;22;20015;-95
2022/10/21 00:27:57;;;;;;;19.73;7.13;;;;;;;28.25;95.21;97062.47;6244912;22;20061;-95
2022/10/21 00:30:22;;;;;;;25.30;7.90;;;;;;;27.38;99.95;97071.66;6246457;22;20031;-95
2022/10/21 00:32:47;;;;;;;21.15;8.07;;;;;;;25.11;100.00;97067.50;6246927;22;20095;-95
2022/10/21 00:35:13;;;;;;;23.63;8.25;;;;;;;27.87;97.74;97070.13;6246458;22;20019;-96
2022/10/21 00:37:40;;;;;;;23.58;8.00;;;;;;;27.94;95.06;97077.31;6246119;22;20014;-94
2022/10/21 00:40:06;;;;;;;24.95;8.18;;;;;;;27.47;98.68;97058.31;6245444;22;20004;-94
2022/10/21 00:42:36;;;;;;;20.10;7.43;;;;;;;28.26;96.27;97066.84;6245841;22;20004;-95
2022/10/21 00:45:04;;;;;;;22.58;8.48;;;;;;;28.18;93.72;97061.47;6245093;22;20020;-95
2022/10/21 00:47:38;;;;;;;21.60;8.20;;;;;;;27.70;97.83;97056.69;6245471;22;20016;-96
2022/10/21 00:50:04;;;;;;;24.80;8.38;;;;;;;28.64;94.71;97052.94;6244419;22;20027;-93
2022/10/21 00:52:33;;;;;;;20.65;8.48;;;;;;;28.27;94.11;97047.91;6244299;22;20027;-95
2022/10/21 00:55:02;;;;;;;24.50;8.35;;;;;;;28.71;92.45;97041.38;6244558;22;20003;-95
2022/10/21 00:57:29;;;;;;;24.30;7.95;;;;;;;29.59;89.79;97034.16;6243987;22;19999;-96
2022/10/21 00:59:59;;;;;;;19.65;7.25;;;;;;;28.23;92.55;97035.84;6244593;22;20474;-96
2022/10/21 01:02:25;;;;;;;20.05;7.28;;;;;;;29.64;87.70;97033.63;6243340;22;20175;-96
2022/10/21 01:04:57;;;;;;;21.40;7.88;;;;;;;29.00;89.20;97031.03;6247143;22;20027;-95
2022/10/21 01:07:23;;;;;;;21.52;7.28;;;;;;;27.95;91.00;97024.59;6246681;22;20007;-94
2022/10/21 01:09:48;;;;;;;18.80;6.70;;;;;;;28.68;92.18;97030.13;6245435;22;20023;-95
2022/10/21 01:12:48;;;;;;;20.92;7.20;;;;;;;27.92;90.61;97028.44;6244712;22;20007;-95
2022/10/21 01:15:32;;;;;;;18.35;6.30;;;;;;;30.65;83.74;97025.47;6246212;22;20019;-96
2022/10/21 01:18:17;;;;;;;21.48;6.53;;;;;;;29.63;85.57;97022.06;6246186;22;20008;-95
2022/10/21 01:21:07;;;;;;;20.40;6.53;;;;;;;30.52;81.69;97020.72;6246265;22;20444;-96
2022/10/21 01:23:51;;;;;;;23.38;7.32;;;;;;;26.83;94.80;97016.69;6245508;22;20107;-95
2022/10/21 01:26:49;;;;;;;24.50;8.25;;;;;;;30.33;85.47;97027.44;6245008;22;20010;-96
2022/10/21 01:29:35;;;;;;;21.23;7.22;;;;;;;30.55;81.82;97006.06;6246361;22;20026;-96
2022/10/21 01:32:29;;;;;;;20.80;7.15;;;;;;;27.36;89.17;97003.22;6246597;22;20011;-95
2022/10/21 01:35:10;;;;;;;18.60;7.30;;;;;;;29.53;85.32;96997.25;6247667;22;20030;-96
2022/10/21 01:38:02;;;;;;;17.55;7.95;;;;;;;30.12;83.81;96995.88;6246203;22;20087;-96
2022/10/21 01:41:05;;;;;;;19.73;7.43;;;;;;;28.78;86.43;97001.25;6247324;22;20006;-96
2022/10/21 01:43:58;;;;;;;24.98;8.55;;;;;;;30.38;83.18;96994.59;6248008;22;20059;-96
2022/10/21 01:46:44;;;;;;;20.15;7.47;;;;;;;28.89;87.36;96997.38;6247837;22;20061;-96
2022/10/21 01:49:35;;;;;;;21.08;7.72;;;;;;;29.50;83.35;96994.91;6247862;22;20004;-95
2022/10/21 01:52:05;;;;;;;22.65;7.93;;;;;;;28.31;88.12;96999.31;6247584;22;20018;-96
2022/10/21 01:54:38;;;;;;;21.42;7.50;;;;;;;27.47;91.11;96994.88;6246995;22;20032;-96
2022/10/21 01:57:06;;;;;;;17.55;7.28;;;;;;;26.90;93.88;96993.69;6275079;22;20456;-96
2022/10/21 01:59:33;;;;;;;18.38;7.25;;;;;;;27.38;93.25;96991.34;6245430;22;20000;-96
2022/10/21 02:02:01;;;;;;;19.35;8.15;;;;;;;26.94;92.45;96993.34;6218368;23;20024;-94
2022/10/21 02:04:29;;;;;;;20.30;7.50;;;;;;;27.60;92.48;96981.03;6211749;23;20003;-95
2022/10/21 02:06:56;;;;;;;18.70;7.35;;;;;;;26.99;92.67;96983.00;6213385;23;20517;-95
2022/10/21 02:09:21;;;;;;;20.33;7.63;;;;;;;29.24;84.62;96981.81;6240435;23;20040;-95
2022/10/21 02:11:50;;;;;;;19.25;6.72;;;;;;;27.07;93.76;96981.19;6266485;22;20007;-96
2022/10/21 02:14:23;;;;;;;21.67;7.90;;;;;;;26.94;95.23;96975.44;6214285;23;20101;-96
2022/10/21 02:16:51;;;;;;;24.85;8.38;;;;;;;27.48;92.99;96968.97;6215065;23;20004;-95
2022/10/21 02:19:18;;;;;;;22.73;6.95;;;;;;;26.33;95.09;96977.28;6215803;23;19996;-95
2022/10/21 02:21:46;;;;;;;19.35;7.30;;;;;;;28.15;89.08;96974.19;6213761;23;20008;-94
2022/10/21 02:24:22;;;;;;;17.88;6.70;;;;;;;25.39;100.00;96960.78;6241956;23;20000;-96
2022/10/21 02:26:47;;;;;;;22.63;7.40;;;;;;;26.34;98.17;96965.59;6240246;23;20441;-95
2022/10/21 02:29:14;;;;;;;23.83;7.28;;;;;;;24.82;100.00;96967.13;6214170;23;20015;-95
2022/10/21 02:32:27;;;;;;;19.33;6.90;;;;;;;27.05;94.33;96960.94;6216082;23;20004;-96
2022/10/21 02:35:10;;;;;;;21.02;6.07;;;;;;;26.68;93.26;96944.22;6123012;23;20485;-95
2022/10/21 02:37:47;;;;;;;16.57;5.63;;;;;;;26.52;94.81;96936.13;6174563;23;20009;-95
2022/10/21 02:40:30;;;;;;;21.25;6.18;;;;;;;25.98;96.16;96941.59;6172622;23;20464;-95
2022/10/21 02:43:01;;;;;;;17.38;6.10;;;;;;;24.91;98.77;96935.22;6124456;23;20097;-95
2022/10/21 02:45:27;;;;;;;16.17;5.72;;;;;;;26.17;95.06;96917.38;6122548;23;20029;-95
2022/10/21 02:47:53;;;;;;;18.40;5.60;;;;;;;25.44;95.35;96921.16;6122490;23;20040;-95
2022/10/21 02:50:18;;;;;;;14.38;5.70;;;;;;;26.91;90.68;96923.09;6122110;23;20029;-95
2022/10/21 02:52:45;;;;;;;18.67;5.57;;;;;;;26.89;89.21;96918.94;6123982;23;20083;-94
2022/10/21 02:55:10;;;;;;;26.45;6.47;;;;;;;27.51;89.52;96929.28;6121413;23;20009;-95
2022/10/21 02:57:36;;;;;;;20.55;6.50;;;;;;;27.24;87.88;96933.91;6170688;23;20024;-94
2022/10/21 03:00:03;;;;;;;17.52;6.32;;;;;;;27.70;86.11;96932.66;6144284;23;20041;-94
2022/10/21 03:02:29;;;;;;;16.88;5.95;;;;;;;28.00;87.45;96924.97;6110740;23;219497;-94
2022/10/21 03:04:54;;;;;;;19.80;4.88;;;;;;;27.41;87.54;96924.09;6123295;23;20573;-94
2022/10/21 03:07:20;;;;;;;11.73;3.88;;;;;;;27.34;88.74;96917.69;6123845;23;20478;-94
2022/10/21 03:09:45;;;;;;;13.38;3.10;;;;;;;28.20;86.59;96898.66;6229168;23;20008;-95
2022/10/21 03:12:10;;;;;;;12.18;2.72;;;;;;;28.37;84.94;96886.03;6211896;23;20008;-95
2022/10/21 03:14:36;;;;;;;10.98;2.75;;;;;;;27.46;86.95;96899.53;6240165;23;20443;-95
2022/10/21 03:17:01;;;;;;;11.68;2.88;;;;;;;29.01;83.93;96895.84;6212607;23;20004;-95
2022/10/21 03:19:26;;;;;;;8.52;2.53;;;;;;;29.26;80.15;96885.84;6211940;23;20027;-95
2022/10/21 03:21:53;;;;;;;11.30;2.88;;;;;;;28.99;80.94;96873.72;6264050;22;20082;-94
2022/10/21 03:24:18;;;;;;;9.95;2.55;;;;;;;29.39;77.72;96871.81;6212410;23;20000;-94
2022/10/21 03:26:44;;;;;;;14.32;3.05;;;;;;;27.19;87.01;96866.66;6242188;23;20492;-93
2022/10/21 03:29:09;;;;;;;11.85;3.63;;;;;;;27.01;87.99;96864.13;6265238;22;20068;-94
2022/10/21 03:31:35;;;;;;;11.45;3.13;;;;;;;26.72;88.37;96868.06;6215075;23;20012;-95
2022/10/21 03:34:00;;;;;;;11.43;2.78;;;;;;;25.92;89.74;96876.28;6215191;23;20583;-94
2022/10/21 03:36:25;;;;;;;10.25;2.47;;;;;;;26.49;91.82;96867.78;6215612;23;20011;-95
2022/10/21 03:38:52;;;;;;;9.73;2.10;;;;;;;25.63;93.49;96863.25;6267162;22;20062;-95
2022/10/21 03:41:17;;;;;;;10.85;2.15;;;;;;;25.75;92.90;96859.34;6216601;23;20000;-96
2022/10/21 03:43:43;;;;;;;9.45;2.15;;;;;;;25.13;95.35;96860.09;6217168;23;20024;-96
2022/10/21 03:46:09;;;;;;;10.57;2.25;;;;;;;26.54;88.69;96868.13;6242791;23;20008;-96
2022/10/21 03:48:34;;;;;;;9.05;2.13;;;;;;;28.02;86.37;96853.31;6266587;22;20087;-96
2022/10/21 03:50:59;;;;;;;9.50;1.90;;;;;;;26.18;92.58;96872.78;6266055;22;20012;-95
2022/10/21 03:53:25;;;;;;;11.57;1.85;;;;;;;25.01;97.89;96874.66;6217475;23;20457;-96
2022/10/21 03:55:51;;;;;;;8.88;1.77;;;;;;;25.69;94.32;96866.13;6213873;23;20012;-96
2022/10/21 03:58:16;;;;;;;6.85;1.80;;;;;;;26.12;92.29;96868.91;6267261;22;20091;-95
2022/10/21 04:00:42;;;;;;;6.97;1.98;;;;;;;25.45;96.90;96877.44;6216381;23;20048;-95
2022/10/21 04:03:07;;;;;;;13.40;2.00;;;;;;;25.53;93.98;96872.16;6216441;23;20087;-95
2022/10/21 04:05:33;;;;;;;10.60;2.10;;;;;;;24.64;100.00;96876.44;6216997;23;20520;-95
2022/10/21 04:07:59;;;;;;;8.43;1.90;;;;;;;24.90;100.00;96878.41;6215093;23;20034;-95
2022/10/21 04:10:24;;;;;;;9.13;2.20;;;;;;;25.02;97.41;96861.19;6216370;23;20016;-95
2022/10/21 04:12:50;;;;;;;10.27;1.90;;;;;;;26.02;93.22;96861.03;6217287;23;20009;-95
2022/10/21 04:15:15;;;;;;;9.98;2.20;;;;;;;25.34;97.08;96859.00;6215411;23;20074;-94
2022/10/21 04:17:41;;;;;;;12.30;2.30;;;;;;;25.75;92.90;96863.81;6215526;23;20350;-94
2022/10/21 04:20:07;;;;;;;7.18;1.95;;;;;;;27.00;88.02;96853.56;6213240;23;20031;-94
2022/10/21 04:22:33;;;;;;;9.07;1.85;;;;;;;26.20;88.95;96850.28;6216658;23;20091;-94
2022/10/21 04:24:58;;;;;;;6.75;1.83;;;;;;;28.21;83.27;96846.72;6243233;23;20062;-95
2022/10/21 04:27:23;;;;;;;11.57;1.92;;;;;;;26.65;86.32;96842.09;6215672;23;20018;-94
2022/10/21 04:29:49;;;;;;;8.45;1.80;;;;;;;26.89;88.46;96850.22;6242944;23;20023;-94
2022/10/21 04:32:14;;;;;;;10.90;2.40;;;;;;;26.73;86.26;96829.59;6242137;23;20008;-95
2022/10/21 04:34:39;;;;;;;10.43;2.40;;;;;;;26.50;88.36;96840.06;6215703;23;20048;-94
2022/10/21 04:37:05;;;;;;;9.50;2.28;;;;;;;26.90;86.95;96835.84;6216135;23;20756;-94
2022/10/21 04:39:31;;;;;;;10.20;2.60;;;;;;;27.66;86.30;96832.25;6216312;23;20522;-94
2022/10/21 04:41:56;;;;;;;8.77;2.50;;;;;;;28.76;79.94;96828.91;6214252;23;20431;-93
2022/10/21 04:44:22;;;;;;;9.15;2.65;;;;;;;29.05;78.06;96825.53;6216003;23;20121;-94
2022/10/21 04:46:47;;;;;;;9.52;2.53;;;;;;;27.81;80.37;96825.19;6215771;23;20039;-95
2022/10/21 04:49:16;;;;;;;9.85;2.53;;;;;;;27.10;85.79;96824.84;6215871;23;20589;-95
2022/10/21 04:51:41;;;;;;;8.70;2.60;;;;;;;28.06;80.97;96820.63;6214974;23;20027;-95
2022/10/21 04:54:07;;;;;;;8.70;2.53;;;;;;;27.80;82.31;96817.31;6214483;23;20008;-95
2022/10/21 04:56:32;;;;;;;8.32;2.50;;;;;;;27.38;83.33;96827.25;6216178;23;20092;-95
2022/10/21 04:58:58;;;;;;;8.52;2.85;;;;;;;27.32;84.99;96833.22;6215339;23;20079;-95
2022/10/21 05:01:24;;;;;;;11.07;2.90;;;;;;;28.05;81.22;96832.34;6211667;23;20024;-93
2022/10/21 05:03:50;;;;;;;18.75;4.10;;;;;;;26.62;86.07;96843.25;6213943;23;20007;-93
2022/10/21 05:06:16;;;;;;;30.60;4.90;;;;;;;25.82;90.28;96868.38;6213344;23;20621;-92
2022/10/21 05:08:41;;;;;;;12.30;3.67;;;;;;;24.10;100.00;96854.06;6237124;23;20011;-92
2022/10/21 05:11:07;;;;;;;13.00;3.60;;;;;;;25.12;95.30;96847.78;6209355;23;20008;-92
2022/10/21 05:13:32;;;;;;;9.55;2.47;;;;;;;23.00;100.00;96835.69;6236362;23;20027;-93
2022/10/21 05:16:02;;;;;;;7.85;2.05;;;;;;;23.40;100.00;96827.75;6209539;23;20000;-94
2022/10/21 05:18:28;;;;;;;8.27;1.90;;;;;;;24.09;100.00;96810.63;6235212;23;20012;-94
2022/10/21 05:20:54;;;;;;;9.55;1.90;;;;;;;23.00;100.00;96813.59;6208534;23;20104;-94
2022/10/21 05:23:20;;;;;;;9.30;2.22;;;;;;;22.93;100.00;96817.78;6208584;23;20012;-93
2022/10/21 05:25:46;;;;;;;10.43;3.05;;;;;;;22.60;100.00;96825.16;6207648;23;20104;-93
2022/10/21 05:28:12;;;;;;;10.82;3.85;;;;;;;22.29;100.00;96809.25;6236928;23;20717;-93
2022/10/21 05:30:38;;;;;;;14.50;5.05;;;;;;;22.37;100.00;96808.63;6239822;23;20513;-93
2022/10/21 05:33:04;;;;;;;16.73;4.85;;;;;;;22.99;100.00;96795.94;6213369;23;20394;-95
2022/10/21 05:35:31;;;;;;;13.02;4.93;;;;;;;22.44;100.00;96802.59;6239973;23;20008;-92
2022/10/21 05:37:56;;;;;;;13.27;4.88;;;;;;;24.62;100.00;96792.28;6239059;23;20093;-93
2022/10/21 05:40:22;;;;;;;15.10;5.22;;;;;;;24.69;100.00;96791.53;6211876;23;20521;-93
2022/10/21 05:42:47;;;;;;;13.82;5.13;;;;;;;23.29;100.00;96788.84;6240252;23;20013;-95
2022/10/21 05:45:13;;;;;;;14.57;5.30;;;;;;;23.64;100.00;96782.88;6211981;23;20012;-93
2022/10/21 05:47:42;;;;;;;13.95;5.32;;;;;;;22.35;100.00;96787.47;6215008;23;20015;-94
2022/10/21 05:50:10;;;;;;;13.75;5.22;;;;;;;22.88;100.00;96788.97;6214160;23;20004;-95
2022/10/21 05:52:35;;;;;;;14.95;5.15;;;;;;;22.87;100.00;96797.06;6214175;23;20780;-93
2022/10/21 05:55:01;;;;;;;14.00;5.53;;;;;;;23.24;100.00;96780.44;6213580;23;20026;-93
2022/10/21 05:57:26;;;;;;;16.05;6.18;;;;;;;23.93;100.00;96778.47;6238461;23;20019;-92
2022/10/21 05:59:51;;;;;;;16.75;6.13;;;;;;;24.54;100.00;96763.69;6209321;23;20008;-92
2022/10/21 06:02:17;;;;;;;15.45;5.80;;;;;;;24.08;100.00;96758.34;6212535;23;20043;-92
2022/10/21 06:04:42;;;;;;;15.27;6.22;;;;;;;23.28;100.00;96761.38;6238328;23;20534;-92
2022/10/21 06:07:08;;;;;;;18.23;7.00;;;;;;;24.32;100.00;96757.78;6212788;23;20016;-93
2022/10/21 06:09:33;;;;;;;14.70;6.30;;;;;;;25.64;100.00;96768.81;6211424;23;20012;-92
2022/10/21 06:11:59;;;;;;;17.38;6.75;;;;;;;26.28;95.34;96768.47;6210256;23;20024;-92
2022/10/21 06:14:25;;;;;;;30.35;7.13;;;;;;;26.38;93.72;96763.84;6205822;23;20020;-93
2022/10/21 06:16:51;;;;;;;74.35;9.38;;;;;;;25.49;94.74;96761.38;6206393;23;20004;-92
2022/10/21 06:19:17;;;;;;;222.40;16.75;;;;;;;25.35;99.71;96778.78;6209854;23;20016;-92
2022/10/21 06:21:42;;;;;;;383.17;27.52;;;;;;;25.29;97.76;96775.88;6209526;23;20012;-90
2022/10/21 06:24:07;;;;;;;350.50;20.90;;;;;;;27.03;92.66;96776.50;6209900;23;20011;-91
2022/10/21 06:26:33;;;;;;;426.83;28.17;;;;;;;24.43;96.36;96774.56;6208327;23;20051;-91
2022/10/21 06:28:58;;;;;;;382.92;29.42;;;;;;;24.88;99.22;96773.72;6236622;23;20090;-90
2022/10/21 06:31:24;;;;;;;383.35;30.40;;;;;;;27.50;88.95;96771.50;6239033;23;20016;-90
2022/10/21 06:33:49;;;;;;;349.15;22.67;;;;;;;25.51;94.19;96783.44;6233677;23;20015;-91
2022/10/21 06:36:14;;;;;;;337.50;23.45;;;;;;;25.05;97.73;96788.03;6206807;23;20043;-91
2022/10/21 06:38:40;;;;;;;191.60;13.82;;;;;;;24.94;98.49;96785.59;6209293;23;20054;-91
2022/10/21 06:41:08;;;;;;;247.63;20.30;;;;;;;26.47;93.25;96778.06;6209310;23;20417;-91
2022/10/21 06:43:34;;;;;;;248.85;16.25;;;;;;;27.58;88.92;96780.34;6210646;23;20019;-91
2022/10/21 06:46:01;;;;;;;206.98;17.00;;;;;;;28.35;83.71;96780.81;6208336;23;19996;-90
2022/10/21 06:48:27;;;;;;;189.43;15.23;;;;;;;27.09;87.83;96785.72;6208044;23;20055;-91
2022/10/21 06:51:04;;;;;;;103.47;9.75;;;;;;;26.69;89.46;96795.31;6208811;23;20713;-89
2022/10/21 06:53:30;;;;;;;140.80;13.45;;;;;;;26.95;85.50;96799.75;6207433;23;20091;-92
2022/10/21 06:56:16;;;;;;;138.93;11.23;;;;;;;26.20;87.47;96793.34;6217924;23;20038;-94
2022/10/21 06:58:45;;;;;;;137.88;12.98;;;;;;;26.62;87.29;96805.81;6218101;23;20015;-94
2022/10/21 07:01:16;;;;;;;130.90;11.60;;;;;;;28.87;81.98;96808.91;6217672;23;20024;-94
2022/10/21 07:03:42;;;;;;;155.05;12.80;;;;;;;31.42;73.49;96810.63;6218720;23;20000;-95
2022/10/21 07:06:07;;;;;;;109.35;11.07;;;;;;;28.93;77.63;96813.53;6217338;23;20027;-93
2022/10/21 07:08:34;;;;;;;195.77;15.60;;;;;;;28.02;83.45;96818.47;6218144;23;20631;-95
2022/10/21 07:10:59;;;;;;;186.77;14.75;;;;;;;27.49;84.37;96815.34;6217281;23;20046;-96
2022/10/21 07:13:25;;;;;;;131.30;11.32;;;;;;;26.16;87.84;96813.34;6216669;23;20039;-94
2022/10/21 07:15:59;;;;;;;129.68;14.80;;;;;;;26.76;88.90;96812.41;6216515;23;20490;-94
2022/10/21 07:18:24;;;;;;;210.50;15.55;;;;;;;26.04;89.70;96808.28;6217274;23;20031;-95
2022/10/21 07:20:50;;;;;;;275.65;19.90;;;;;;;25.22;93.97;96813.84;6244264;23;20008;-94
2022/10/21 07:23:16;;;;;;;294.63;20.23;;;;;;;26.51;89.63;96800.78;6243769;23;20008;-94
2022/10/21 07:25:41;;;;;;;271.48;18.77;;;;;;;26.15;91.60;96793.81;6218497;23;20304;-95
2022/10/21 07:28:07;;;;;;;208.52;18.20;;;;;;;27.57;87.21;96801.94;6217463;23;20023;-96
2022/10/21 07:30:38;;;;;;;306.42;23.92;;;;;;;26.89;89.20;96809.28;6217769;23;20020;-95
2022/10/21 07:33:03;;;;;;;279.90;22.13;;;;;;;28.88;83.38;96792.63;6213697;23;20401;-94
2022/10/21 07:35:31;;;;;;;231.82;20.20;;;;;;;27.51;86.26;96805.31;6215365;23;20003;-95
2022/10/21 07:38:02;;;;;;;287.40;21.58;;;;;;;26.27;90.85;96807.72;6215219;23;20039;-94
2022/10/21 07:40:28;;;;;;;267.90;22.88;;;;;;;26.80;90.50;96805.72;6215505;23;20882;-94
2022/10/21 07:42:54;;;;;;;280.52;23.55;;;;;;;26.32;91.86;96807.22;6241680;23;20008;-94
2022/10/21 07:45:20;;;;;;;214.18;17.40;;;;;;;26.26;92.36;96808.72;6213957;23;20075;-96
2022/10/21 07:47:46;;;;;;;256.83;22.95;;;;;;;25.48;94.81;96812.25;6216505;23;20043;-96
2022/10/21 07:50:12;;;;;;;248.13;20.67;;;;;;;25.41;96.40;96816.53;6213634;23;20091;-95
2022/10/21 07:52:44;;;;;;;239.27;19.90;;;;;;;25.32;98.09;96804.94;6216384;23;20012;-95
2022/10/21 07:55:12;;;;;;;214.43;17.77;;;;;;;23.80;100.00;96811.53;6215515;23;20011;-95
2022/10/21 07:57:38;;;;;;;218.80;18.83;;;;;;;25.09;100.00;96828.56;6216753;23;20150;-96
2022/10/21 08:00:04;;;;;;;307.08;23.02;;;;;;;24.44;100.00;96814.38;6220934;23;20512;-94
2022/10/21 08:02:32;;;;;;;382.48;27.83;;;;;;;25.63;96.66;96831.22;6241428;23;20016;-96
2022/10/21 08:04:57;;;;;;;407.50;30.00;;;;;;;24.58;100.00;96834.38;6240777;23;20019;-95
2022/10/21 08:07:24;;;;;;;355.30;25.13;;;;;;;25.59;97.16;96825.34;6216174;23;20020;-96
2022/10/21 08:09:50;;;;;;;389.73;28.83;;;;;;;25.98;95.44;96840.09;6215212;23;20872;-96
2022/10/21 08:12:15;;;;;;;426.35;32.55;;;;;;;25.86;97.74;96824.34;6217105;23;20008;-95
2022/10/21 08:14:40;;;;;;;393.33;26.05;;;;;;;24.93;100.00;96823.91;6217017;23;20015;-96
2022/10/21 08:17:06;;;;;;;346.63;25.77;;;;;;;24.45;100.00;96824.03;6242660;23;20004;-96
2022/10/21 08:19:36;;;;;;;317.58;23.00;;;;;;;26.78;94.17;96834.50;6216584;23;20004;-96
2022/10/21 08:22:02;;;;;;;268.05;22.85;;;;;;;25.72;97.52;96841.78;6214412;23;20016;-96
2022/10/21 08:24:27;;;;;;;267.98;22.25;;;;;;;25.60;97.20;96827.00;6215166;23;20004;-96
2022/10/21 08:26:53;;;;;;;273.42;22.85;;;;;;;25.51;98.64;96818.13;6214977;23;20023;-96
2022/10/21 08:29:19;;;;;;;283.77;22.40;;;;;;;25.55;100.00;96829.31;6216007;23;20110;-95
2022/10/21 08:31:45;;;;;;;323.25;23.92;;;;;;;25.30;100.00;96833.59;6217085;23;20004;-96
2022/10/21 08:34:10;;;;;;;312.17;20.85;;;;;;;24.13;100.00;96819.97;6214135;23;20292;-96
2022/10/21 08:36:37;;;;;;;215.50;20.73;;;;;;;26.13;97.13;96822.53;6214393;23;20015;-95
2022/10/21 08:39:03;;;;;;;343.58;25.95;;;;;;;25.26;100.00;96822.41;6216662;23;20016;-95
2022/10/21 08:41:28;;;;;;;353.20;25.73;;;;;;;24.17;100.00;96816.03;6239770;23;20034;-94
2022/10/21 08:44:16;;;;;;;302.55;22.58;;;;;;;25.95;100.00;96811.06;6214816;23;20354;-95
2022/10/21 08:46:53;;;;;;;286.52;22.85;;;;;;;26.27;100.00;96806.88;6215469;23;20066;-94
2022/10/21 08:49:30;;;;;;;275.73;21.90;;;;;;;24.84;100.00;96809.66;6214813;23;20008;-95
2022/10/21 08:52:34;;;;;;;343.83;25.60;;;;;;;25.95;100.00;96797.69;6243639;23;20026;-95
2022/10/21 08:55:04;;;;;;;255.65;21.08;;;;;;;26.28;99.43;96796.03;6243393;23;20000;-93
2022/10/21 08:57:33;;;;;;;266.67;21.38;;;;;;;25.42;100.00;96812.88;6215487;23;20022;-95
2022/10/21 08:59:58;;;;;;;197.98;19.77;;;;;;;25.99;100.00;96797.22;6217657;23;20070;-96
2022/10/21 09:02:41;;;;;;;241.88;20.63;;;;;;;25.94;100.00;96790.66;6217488;23;20019;-95
2022/10/21 09:05:07;;;;;;;123.70;18.33;;;;;;;24.29;100.00;96798.06;6217849;23;20113;-95
2022/10/21 09:08:19;;;;;;;132.80;19.33;;;;;;;26.59;100.00;96803.47;6218056;23;20004;-95
2022/10/21 09:10:57;;;;;;;180.23;19.02;;;;;;;26.19;100.00;96792.50;6242675;23;20007;-96
2022/10/21 09:13:54;;;;;;;252.45;21.92;;;;;;;26.19;100.00;96794.31;6219090;23;20016;-95
2022/10/21 09:16:47;;;;;;;125.28;16.58;;;;;;;25.15;100.00;96793.28;6219877;23;20048;-96
2022/10/21 09:19:30;;;;;;;60.53;14.18;;;;;;;26.10;100.00;96793.47;6221042;23;20012;-96
2022/10/21 09:22:32;;;;;;;75.70;14.50;;;;;;;27.63;100.00;96800.41;6216786;23;20016;-96
2022/10/21 09:25:13;;;;;;;54.55;14.90;;;;;;;27.86;100.00;96776.44;6219956;23;20004;-96
2022/10/21 09:27:39;;;;;;;86.22;15.55;;;;;;;26.61;100.00;96784.59;6223297;23;20015;-96
2022/10/21 09:30:06;;;;;;;60.13;15.00;;;;;;;25.36;100.00;96787.66;6224271;23;20008;-96
2022/10/21 09:32:39;;;;;;;71.70;14.20;;;;;;;26.92;100.00;96775.00;6250975;23;20050;-96
2022/10/21 09:35:26;;;;;;;69.28;14.85;;;;;;;27.98;98.82;96774.25;6223848;23;20524;-96
2022/10/21 09:38:18;;;;;;;43.10;14.27;;;;;;;26.23;100.00;96776.97;6221328;23;20007;-96
2022/10/21 09:40:47;;;;;;;69.65;15.88;;;;;;;24.82;100.00;96777.81;6224078;23;20000;-96
2022/10/21 09:43:20;;;;;;;49.92;14.57;;;;;;;25.91;100.00;96770.47;6225583;23;20023;-96
2022/10/21 09:45:46;;;;;;;69.43;15.25;;;;;;;25.16;100.00;96763.81;6226877;23;20006;-96
2022/10/21 09:48:43;;;;;;;79.18;15.45;;;;;;;25.62;100.00;96774.28;6231152;23;20019;-96
2022/10/21 09:51:14;;;;;;;231.48;20.77;;;;;;;24.15;100.00;96762.09;6222126;23;20008;-96
2022/10/21 09:53:54;;;;;;;215.35;22.52;;;;;;;26.24;100.00;96770.63;6221875;23;20468;-96
2022/10/21 09:56:24;;;;;;;384.38;28.02;;;;;;;25.38;100.00;96758.97;6222840;23;20015;-96
2022/10/21 09:59:04;;;;;;;348.00;28.10;;;;;;;24.74;100.00;96763.59;6217634;23;20038;-96
2022/10/21 10:01:30;;;;;;;422.67;32.55;;;;;;;23.95;100.00;96763.19;6226453;23;20039;-96
2022/10/21 10:03:56;;;;;;;347.83;26.38;;;;;;;25.96;100.00;96756.66;6219066;23;20004;-96
2022/10/21 10:06:42;;;;;;;327.75;25.98;;;;;;;25.58;100.00;96758.75;6220303;23;20012;-96
2022/10/21 10:09:15;;;;;;;424.92;35.13;;;;;;;26.69;100.00;96765.91;6222060;23;20000;-96
2022/10/21 10:12:01;;;;;;;437.38;33.35;;;;;;;26.09;100.00;96764.25;6218468;23;20023;-96
2022/10/21 10:14:39;;;;;;;466.00;38.80;;;;;;;27.00;100.00;96768.81;6217099;23;20012;-95
2022/10/21 10:17:25;;;;;;;434.30;35.78;;;;;;;26.02;100.00;96772.06;6218236;23;20004;-96
2022/10/21 10:20:18;;;;;;;354.40;28.83;;;;;;;27.22;100.00;96747.75;6218352;23;20008;-96
2022/10/21 10:23:06;;;;;;;236.68;23.67;;;;;;;25.85;100.00;96763.91;6215770;23;20035;-96
2022/10/21 10:25:37;;;;;;;178.25;20.10;;;;;;;26.39;100.00;96757.50;6220522;23;20003;-96
2022/10/21 10:28:09;;;;;;;182.18;22.13;;;;;;;26.24;100.00;96758.09;6219729;23;20015;-96
2022/10/21 10:30:43;;;;;;;160.15;22.23;;;;;;;26.38;100.00;96759.31;6223322;23;20072;-96
2022/10/21 10:33:18;;;;;;;198.75;22.63;;;;;;;26.40;100.00;96754.66;6223795;23;20012;-96
2022/10/21 10:35:56;;;;;;;326.52;27.80;;;;;;;27.03;100.00;96748.94;6218658;23;20036;-96
2022/10/21 10:38:34;;;;;;;358.33;30.02;;;;;;;26.70;100.00;96749.72;6222341;23;20489;-96
2022/10/21 10:41:09;;;;;;;272.08;26.25;;;;;;;27.44;100.00;96748.91;6224430;23;20430;-96
2022/10/21 10:43:44;;;;;;;360.15;28.70;;;;;;;24.90;100.00;96749.56;6241621;22;20012;-93
2022/10/21 10:46:23;;;;;;;340.05;28.40;;;;;;;25.73;100.00;96749.16;6247936;22;20018;-94
2022/10/21 10:48:51;;;;;;;291.33;24.77;;;;;;;25.76;100.00;96742.69;6241226;22;20099;-94
2022/10/21 10:51:27;;;;;;;275.45;26.15;;;;;;;26.31;100.00;96747.59;6243819;22;20014;-93
2022/10/21 10:54:15;;;;;;;204.93;21.95;;;;;;;25.47;100.00;96739.38;6243935;22;20003;-94
2022/10/21 10:56:56;;;;;;;290.42;26.73;;;;;;;26.92;100.00;96756.28;6241275;22;20024;-94
2022/10/21 10:59:29;;;;;;;203.38;23.27;;;;;;;25.76;100.00;96745.34;6271890;22;20011;-94
2022/10/21 11:02:07;;;;;;;;;;;;;;;25.92;100.00;96747.28;6247130;22;20003;-94
2022/10/21 11:04:38;;;;;;;197.63;21.90;;;;;;;25.94;100.00;96748.78;6245143;22;19910;-94
2022/10/21 11:07:12;;;;;;;182.82;20.27;;;;;;;27.26;100.00;96749.06;6271852;22;20082;-94
2022/10/21 11:09:38;;;;;;;272.73;25.20;;;;;;;26.53;100.00;96745.34;6247545;22;20008;-94
2022/10/21 11:12:14;;;;;;;288.45;25.55;;;;;;;26.85;100.00;96746.41;6246147;22;20682;-93
2022/10/21 11:14:39;;;;;;;240.57;23.40;;;;;;;26.13;100.00;96745.03;6245327;22;20061;-90
2022/10/21 11:17:11;;;;;;;291.15;26.67;;;;;;;26.21;100.00;96753.09;6244423;22;20011;-94
2022/10/21 11:19:59;;;;;;;197.27;19.33;;;;;;;26.77;100.00;96749.09;6246139;22;20012;-94
2022/10/21 11:22:44;;;;;;;192.20;19.58;;;;;;;27.51;100.00;96749.91;6245790;22;20002;-94
2022/10/21 11:25:18;;;;;;;149.02;17.10;;;;;;;26.32;100.00;96748.44;6245362;22;19999;-95
2022/10/21 11:27:50;;;;;;;100.63;15.23;;;;;;;27.00;100.00;96744.75;6244472;22;20008;-94
2022/10/21 11:30:18;;;;;;;58.65;13.63;;;;;;;27.21;100.00;96741.56;6243178;22;20011;-94
2022/10/21 11:33:16;;;;;;;78.18;14.27;;;;;;;26.60;100.00;96738.34;6271254;22;20004;-95